Time;durP1;ratioP1;P1;durP2;ratioP2;P2;SDS_P1;SDS_P2;PMS_P1;PMS_P2;Temp;Humidity;BMP_temperature;BMP_pressure;BME280_temperature;BME280_humidity;BME280_pressure;Samples;Min_cycle;Max_cycle;Signal;HPM_P1;HPM_P2
2022/10/31 00:00:16;;;;;;;51.73;11.43;;;18.30;67.50;;;;;;5082065;28;20456;-91
2022/10/31 00:02:43;;;;;;;50.40;11.30;;;18.30;67.30;;;;;;5095516;28;20514;-91
2022/10/31 00:05:12;;;;;;;20.10;8.03;;;18.20;67.40;;;;;;5101790;28;20428;-91
2022/10/31 00:07:39;;;;;;;33.93;9.97;;;18.30;67.20;;;;;;5093425;28;20479;-91
2022/10/31 00:10:07;;;;;;;19.97;7.97;;;18.30;67.20;;;;;;5084628;28;20452;-91
2022/10/31 00:12:34;;;;;;;84.07;10.13;;;18.30;67.20;;;;;;5078274;28;20960;-91
2022/10/31 00:15:01;;;;;;;28.83;9.43;;;18.20;66.80;;;;;;5099955;28;20541;-91
2022/10/31 00:17:28;;;;;;;43.37;9.23;;;18.00;67.60;;;;;;5073730;28;20500;-91
2022/10/31 00:19:56;;;;;;;25.43;8.37;;;18.00;67.60;;;;;;5095756;28;20442;-90
2022/10/31 00:22:25;;;;;;;17.80;8.50;;;18.10;67.60;;;;;;5095741;28;20446;-90
2022/10/31 00:24:52;;;;;;;53.17;12.60;;;18.10;67.60;;;;;;5065438;28;21065;-90
2022/10/31 00:27:19;;;;;;;29.47;8.97;;;18.10;67.50;;;;;;5101795;28;21244;-91
2022/10/31 00:29:46;;;;;;;36.33;9.30;;;18.20;67.20;;;;;;5068903;28;20467;-91
2022/10/31 00:32:13;;;;;;;28.70;9.67;;;18.00;67.50;;;;;;5084060;28;20456;-91
2022/10/31 00:34:40;;;;;;;85.40;10.30;;;17.80;67.70;;;;;;5103020;28;20491;-91
2022/10/31 00:37:07;;;;;;;31.53;9.20;;;17.60;68.30;;;;;;5093999;28;20502;-91
2022/10/31 00:39:37;;;;;;;75.07;10.33;;;17.70;68.30;;;;;;5080771;28;20487;-91
2022/10/31 00:42:04;;;;;;;47.30;11.77;;;17.70;68.50;;;;;;5099129;28;20436;-90
2022/10/31 00:44:31;;;;;;;36.87;8.97;;;17.60;68.60;;;;;;5071819;28;20958;-91
2022/10/31 00:46:59;;;;;;;19.93;7.70;;;17.60;68.90;;;;;;5101366;27;20500;-91
2022/10/31 00:49:26;;;;;;;21.63;8.20;;;17.50;69.00;;;;;;5064134;28;20955;-92
2022/10/31 00:51:53;;;;;;;31.53;8.60;;;17.50;68.70;;;;;;5084980;28;20455;-90
2022/10/31 00:54:20;;;;;;;17.73;7.87;;;17.50;68.70;;;;;;5083852;28;20463;-90
2022/10/31 00:56:48;;;;;;;36.47;9.47;;;17.50;68.80;;;;;;5084283;28;20478;-92
2022/10/31 00:59:15;;;;;;;42.93;9.70;;;17.70;68.50;;;;;;5082040;27;20450;-91
2022/10/31 01:01:42;;;;;;;116.33;14.83;;;17.80;67.60;;;;;;5075675;28;20453;-91
2022/10/31 01:04:09;;;;;;;10.93;7.30;;;17.80;66.80;;;;;;5067712;28;20511;-89
2022/10/31 01:06:36;;;;;;;97.33;11.20;;;17.80;66.80;;;;;;5071702;27;20495;-90
2022/10/31 01:09:03;;;;;;;20.23;7.67;;;17.80;66.40;;;;;;5098158;28;21193;-90
2022/10/31 01:11:30;;;;;;;54.83;9.23;;;17.70;66.50;;;;;;5085541;28;20546;-91
2022/10/31 01:13:59;;;;;;;71.40;11.30;;;17.70;66.20;;;;;;5105440;27;21055;-91
2022/10/31 01:16:29;;;;;;;28.03;7.77;;;17.40;66.40;;;;;;5068354;28;20979;-90
2022/10/31 01:18:57;;;;;;;34.50;7.30;;;17.20;67.40;;;;;;5073119;27;20467;-91
2022/10/31 01:21:29;;;;;;;42.23;7.50;;;17.10;67.60;;;;;;5083714;28;20439;-90
2022/10/31 01:23:59;;;;;;;41.17;7.87;;;17.10;67.60;;;;;;5102978;28;20499;-92
2022/10/31 01:26:28;;;;;;;24.57;7.00;;;17.20;67.50;;;;;;5081978;27;20946;-90
2022/10/31 01:28:57;;;;;;;24.33;6.53;;;17.30;67.00;;;;;;5102130;27;20842;-92
2022/10/31 01:31:29;;;;;;;15.33;6.70;;;17.40;66.80;;;;;;5083638;28;20454;-91
2022/10/31 01:33:57;;;;;;;50.57;8.00;;;17.40;66.70;;;;;;5072967;28;20858;-91
2022/10/31 01:36:27;;;;;;;41.67;7.03;;;17.40;66.40;;;;;;5100892;27;20864;-91
2022/10/31 01:38:57;;;;;;;74.60;9.17;;;17.40;66.50;;;;;;5086449;27;20559;-91
2022/10/31 01:41:27;;;;;;;23.90;7.20;;;17.10;66.90;;;;;;5101455;27;20451;-91
2022/10/31 01:43:56;;;;;;;48.40;8.50;;;17.00;67.30;;;;;;5083749;28;20443;-91
2022/10/31 01:46:29;;;;;;;83.00;9.33;;;17.00;67.50;;;;;;5098551;27;20453;-92
2022/10/31 01:49:00;;;;;;;14.10;5.93;;;17.00;67.30;;;;;;5097199;27;21165;-91
2022/10/31 01:51:31;;;;;;;17.07;5.97;;;16.80;67.40;;;;;;5088908;27;20454;-90
2022/10/31 01:54:02;;;;;;;61.80;9.03;;;16.90;67.40;;;;;;5107889;27;20466;-90
2022/10/31 01:56:29;;;;;;;10.70;5.00;;;16.90;66.70;;;;;;5082004;28;20538;-91
2022/10/31 01:58:59;;;;;;;114.60;11.77;;;16.90;67.30;;;;;;5090344;28;20475;-91
2022/10/31 02:01:29;;;;;;;29.17;6.30;;;17.00;66.10;;;;;;5102273;27;20518;-89
2022/10/31 02:03:56;;;;;;;37.90;6.57;;;16.90;66.60;;;;;;5105534;28;20535;-91
2022/10/31 02:06:33;;;;;;;33.00;7.10;;;16.80;66.60;;;;;;5088157;28;20449;-90
2022/10/31 02:09:03;;;;;;;60.83;9.30;;;16.90;66.60;;;;;;5064267;28;20493;-89
2022/10/31 02:11:32;;;;;;;32.63;6.63;;;17.00;66.50;;;;;;5089236;28;20502;-92
2022/10/31 02:14:00;;;;;;;50.23;7.23;;;17.00;66.50;;;;;;5086014;28;20459;-91
2022/10/31 02:16:28;;;;;;;39.67;6.70;;;17.00;66.00;;;;;;5089199;28;21033;-91
2022/10/31 02:18:57;;;;;;;22.47;5.73;;;16.90;66.40;;;;;;5076310;28;20593;-91
2022/10/31 02:21:34;;;;;;;11.67;4.60;;;17.00;66.20;;;;;;5070770;28;20487;-91
2022/10/31 02:24:22;;;;;;;11.23;5.43;;;17.10;65.70;;;;;;5087469;28;21138;-90
2022/10/31 02:27:04;;;;;;;21.43;5.43;;;17.10;65.20;;;;;;5081527;28;20447;-90
2022/10/31 02:30:04;;;;;;;72.47;8.13;;;16.90;65.70;;;;;;5082664;28;20444;-90
2022/10/31 02:32:53;;;;;;;12.20;5.07;;;16.90;65.90;;;;;;5114071;27;20532;-91
2022/10/31 02:35:34;;;;;;;38.80;6.43;;;17.00;65.60;;;;;;5053798;28;20578;-91
2022/10/31 02:38:09;;;;;;;53.80;6.90;;;17.00;65.10;;;;;;5072311;28;20459;-90
2022/10/31 02:40:46;;;;;;;16.93;5.30;;;17.00;65.40;;;;;;5113385;27;20447;-90
2022/10/31 02:43:32;;;;;;;25.50;5.90;;;16.80;65.70;;;;;;5082598;28;20459;-90
2022/10/31 02:46:07;;;;;;;46.27;6.73;;;16.60;66.40;;;;;;5072477;27;20450;-91
2022/10/31 02:48:40;;;;;;;25.23;5.90;;;16.70;66.50;;;;;;5078519;28;20459;-91
2022/10/31 02:51:09;;;;;;;20.37;5.70;;;16.40;66.20;;;;;;5104195;27;20455;-90
2022/10/31 02:53:38;;;;;;;18.53;5.83;;;16.10;67.30;;;;;;5071101;27;20465;-90
2022/10/31 02:56:12;;;;;;;23.00;6.03;;;16.10;67.70;;;;;;5073848;27;20432;-91
2022/10/31 02:58:43;;;;;;;36.47;8.10;;;16.10;67.20;;;;;;5097313;27;20456;-90
2022/10/31 03:01:49;;;;;;;78.80;9.30;;;15.90;67.70;;;;;;5063512;28;20443;-91
2022/10/31 03:04:56;;;;;;;7.00;5.43;;;16.00;67.50;;;;;;5080500;28;20478;-91
2022/10/31 03:07:31;;;;;;;22.10;6.07;;;16.30;67.10;;;;;;5044613;28;20557;-91
2022/10/31 03:10:05;;;;;;;26.63;5.77;;;16.50;66.80;;;;;;5095960;27;20456;-91
2022/10/31 03:12:40;;;;;;;22.30;5.03;;;16.60;66.60;;;;;;5079315;28;20494;-90
2022/10/31 03:15:18;;;;;;;12.70;5.47;;;16.60;66.40;;;;;;5086928;28;21324;-90
2022/10/31 03:17:53;;;;;;;23.47;6.10;;;16.50;66.40;;;;;;5095891;28;20481;-91
2022/10/31 03:20:25;;;;;;;24.53;5.47;;;16.10;66.20;;;;;;5105626;27;20507;-90
2022/10/31 03:22:56;;;;;;;20.40;5.37;;;16.00;66.70;;;;;;5083704;28;20535;-91
2022/10/31 03:25:23;;;;;;;27.47;6.27;;;15.90;66.80;;;;;;5087396;28;20474;-91
2022/10/31 03:27:53;;;;;;;15.60;5.50;;;15.90;67.10;;;;;;5098672;27;20573;-90
2022/10/31 03:30:20;;;;;;;24.20;5.93;;;16.00;66.90;;;;;;5070456;27;20458;-91
2022/10/31 03:32:58;;;;;;;22.17;6.90;;;16.10;66.80;;;;;;5087948;28;20443;-91
2022/10/31 03:35:28;;;;;;;27.60;6.10;;;16.00;66.70;;;;;;5115282;27;20501;-88
2022/10/31 03:37:59;;;;;;;15.83;5.83;;;15.90;66.40;;;;;;5065850;28;20464;-90
2022/10/31 03:40:28;;;;;;;23.20;5.70;;;15.80;67.20;;;;;;5104133;27;20451;-90
2022/10/31 03:43:01;;;;;;;36.33;5.40;;;15.70;66.80;;;;;;5087318;28;20522;-90
2022/10/31 03:45:30;;;;;;;28.43;5.77;;;15.70;67.00;;;;;;5080392;28;20443;-91
2022/10/31 03:47:58;;;;;;;50.93;6.90;;;15.70;66.90;;;;;;5081975;28;20467;-91
2022/10/31 03:50:32;;;;;;;56.10;8.60;;;15.90;66.80;;;;;;5067031;28;21065;-91
2022/10/31 03:53:10;;;;;;;27.93;7.90;;;16.00;66.40;;;;;;5069566;28;20455;-91
2022/10/31 03:55:42;;;;;;;33.87;6.40;;;16.00;66.30;;;;;;5087638;28;20451;-90
2022/10/31 03:58:13;;;;;;;52.60;6.10;;;16.00;65.90;;;;;;5086905;28;20467;-89
2022/10/31 04:00:45;;;;;;;31.30;6.53;;;15.70;66.40;;;;;;5082185;28;20436;-90
2022/10/31 04:03:16;;;;;;;27.30;6.63;;;15.70;66.90;;;;;;5102815;28;20454;-91
2022/10/31 04:05:48;;;;;;;33.07;6.30;;;15.60;67.70;;;;;;5067827;28;20440;-91
2022/10/31 04:08:21;;;;;;;10.33;4.77;;;15.60;67.30;;;;;;5079704;28;20464;-91
2022/10/31 04:10:50;;;;;;;74.53;9.33;;;15.60;67.00;;;;;;5084211;28;20476;-90
2022/10/31 04:13:23;;;;;;;17.13;5.53;;;15.70;66.30;;;;;;5094195;28;20458;-90
2022/10/31 04:15:58;;;;;;;30.20;5.60;;;15.70;66.50;;;;;;5077851;28;20559;-90
2022/10/31 04:18:26;;;;;;;24.17;5.83;;;15.90;66.20;;;;;;5074332;28;20470;-90
2022/10/31 04:21:01;;;;;;;64.93;8.10;;;16.10;66.00;;;;;;5089079;27;20436;-91
2022/10/31 04:23:30;;;;;;;67.30;7.20;;;16.20;65.00;;;;;;5087657;28;20449;-89
2022/10/31 04:25:58;;;;;;;25.67;5.47;;;16.00;65.00;;;;;;5068296;28;20489;-91
2022/10/31 04:28:25;;;;;;;62.97;8.10;;;15.60;65.70;;;;;;5074371;28;20569;-90
2022/10/31 04:30:53;;;;;;;67.93;8.43;;;15.50;66.20;;;;;;5073677;27;20500;-90
2022/10/31 04:33:20;;;;;;;21.40;5.40;;;15.60;66.20;;;;;;5101603;27;21049;-90
2022/10/31 04:35:48;;;;;;;28.73;6.80;;;15.60;66.00;;;;;;5100515;28;20462;-90
2022/10/31 04:38:15;;;;;;;65.13;8.43;;;15.70;65.80;;;;;;5084282;28;20505;-91
2022/10/31 04:40:46;;;;;;;38.67;7.03;;;15.50;66.00;;;;;;5103476;27;20781;-90
2022/10/31 04:43:45;;;;;;;30.07;7.20;;;15.50;66.30;;;;;;5064150;28;20595;-90
2022/10/31 04:46:13;;;;;;;48.90;5.80;;;15.60;65.70;;;;;;5082596;28;20466;-89
2022/10/31 04:48:40;;;;;;;51.80;7.33;;;15.60;66.00;;;;;;5072193;28;21016;-89
2022/10/31 04:51:08;;;;;;;52.80;7.10;;;15.50;66.00;;;;;;5087279;27;20454;-89
2022/10/31 04:53:35;;;;;;;33.17;5.90;;;15.50;65.70;;;;;;5081877;28;20492;-90
2022/10/31 04:56:41;;;;;;;14.53;5.17;;;15.30;66.30;;;;;;5080132;27;21141;-89
2022/10/31 04:59:17;;;;;;;20.33;5.20;;;15.60;65.70;;;;;;5092665;27;20447;-90
2022/10/31 05:01:49;;;;;;;34.50;7.50;;;15.70;65.30;;;;;;5086960;28;20436;-90
2022/10/31 05:04:21;;;;;;;71.63;9.40;;;15.70;65.50;;;;;;5103063;27;21772;-89
2022/10/31 05:06:48;;;;;;;79.70;7.90;;;15.60;64.50;;;;;;5071666;27;20976;-90
2022/10/31 05:09:15;;;;;;;185.57;14.73;;;15.30;65.40;;;;;;5083879;27;20477;-89
2022/10/31 05:11:45;;;;;;;21.70;5.30;;;15.10;66.10;;;;;;5095235;27;20680;-89
2022/10/31 05:14:26;;;;;;;29.27;5.70;;;15.20;66.40;;;;;;5087342;28;20946;-89
2022/10/31 05:17:16;;;;;;;31.87;6.03;;;15.40;65.80;;;;;;5092374;28;21005;-90
2022/10/31 05:20:24;;;;;;;64.00;7.80;;;15.40;65.20;;;;;;5078584;27;20454;-90
2022/10/31 05:23:17;;;;;;;43.00;6.67;;;15.50;65.30;;;;;;5103839;27;20492;-90
2022/10/31 05:25:44;;;;;;;42.77;6.87;;;15.40;66.00;;;;;;5061683;28;20954;-91
2022/10/31 05:28:14;;;;;;;75.63;9.63;;;15.40;65.30;;;;;;5086957;28;20475;-90
2022/10/31 05:30:40;;;;;;;58.90;6.00;;;15.40;65.50;;;;;;5096426;27;20904;-90
2022/10/31 05:33:12;;;;;;;36.60;6.70;;;15.40;65.40;;;;;;5086034;28;20436;-90
2022/10/31 05:36:05;;;;;;;24.47;5.57;;;15.20;65.60;;;;;;5094607;27;20470;-90
2022/10/31 05:38:35;;;;;;;55.10;8.30;;;15.30;65.70;;;;;;5059422;28;20470;-90
2022/10/31 05:41:11;;;;;;;53.03;7.83;;;15.10;65.70;;;;;;5094533;27;20439;-91
2022/10/31 05:43:42;;;;;;;36.37;5.77;;;15.00;65.90;;;;;;5093091;27;20562;-89
2022/10/31 05:46:10;;;;;;;74.33;8.70;;;15.20;66.30;;;;;;5063853;28;20448;-89
2022/10/31 05:49:17;;;;;;;142.53;13.50;;;15.30;65.80;;;;;;5059012;28;20468;-90
2022/10/31 05:52:13;;;;;;;32.43;5.57;;;15.10;65.20;;;;;;5083592;27;20806;-90
2022/10/31 05:54:48;;;;;;;15.80;5.00;;;15.30;65.50;;;;;;5082983;28;20466;-91
2022/10/31 05:57:15;;;;;;;14.47;5.43;;;15.40;64.80;;;;;;5078818;28;20558;-89
2022/10/31 05:59:44;;;;;;;49.17;7.10;;;15.30;64.60;;;;;;5082009;28;20497;-88
2022/10/31 06:02:11;;;;;;;62.93;6.77;;;15.20;64.70;;;;;;5104219;27;20456;-90
2022/10/31 06:04:57;;;;;;;39.47;6.90;;;15.10;65.50;;;;;;5098026;27;20804;-89
2022/10/31 06:07:24;;;;;;;33.33;6.23;;;14.80;66.50;;;;;;5077360;28;20978;-89
2022/10/31 06:09:50;;;;;;;93.20;8.63;;;14.80;66.10;;;;;;5094628;28;20460;-90
2022/10/31 06:12:20;;;;;;;38.57;6.40;;;14.60;66.40;;;;;;5078441;28;20710;-89
2022/10/31 06:15:09;;;;;;;32.57;5.97;;;14.70;66.50;;;;;;5085164;28;20468;-89
2022/10/31 06:17:36;;;;;;;27.23;5.53;;;14.90;66.00;;;;;;5076129;28;20482;-89
2022/10/31 06:20:30;;;;;;;63.50;6.97;;;15.10;65.40;;;;;;5092586;27;20468;-89
2022/10/31 06:23:02;;;;;;;33.47;5.13;;;15.00;65.30;;;;;;5068792;27;20446;-89
2022/10/31 06:25:29;;;;;;;55.17;7.87;;;14.90;65.10;;;;;;5061447;28;20908;-88
2022/10/31 06:27:57;;;;;;;42.70;7.00;;;14.70;65.80;;;;;;5080101;28;20889;-88
2022/10/31 06:30:30;;;;;;;56.17;9.50;;;14.70;66.20;;;;;;5064298;27;20531;-89
2022/10/31 06:33:03;;;;;;;80.40;8.83;;;14.70;65.90;;;;;;5096846;28;20479;-88
2022/10/31 06:35:30;;;;;;;71.30;8.73;;;14.90;65.40;;;;;;5084647;28;20471;-87
2022/10/31 06:37:58;;;;;;;40.40;7.47;;;14.60;65.60;;;;;;5066877;28;20463;-88
2022/10/31 06:40:38;;;;;;;38.53;5.03;;;14.80;66.10;;;;;;5082630;28;21006;-90
2022/10/31 06:43:17;;;;;;;22.97;4.67;;;14.70;65.70;;;;;;5085766;27;21220;-88
2022/10/31 06:45:46;;;;;;;12.77;3.53;;;14.80;65.30;;;;;;5082895;28;20451;-89
2022/10/31 06:48:36;;;;;;;3.03;2.83;;;14.80;64.20;;;;;;5091452;27;20821;-89
2022/10/31 06:51:19;;;;;;;3.67;3.10;;;14.90;64.90;;;;;;5079780;28;20436;-89
2022/10/31 06:53:46;;;;;;;3.53;3.23;;;15.00;63.70;;;;;;5070935;28;20454;-90
2022/10/31 06:56:16;;;;;;;3.23;2.93;;;14.90;62.80;;;;;;5077639;28;20467;-89
2022/10/31 06:58:48;;;;;;;3.50;3.20;;;14.60;62.50;;;;;;5083715;28;20473;-89
2022/10/31 07:01:18;;;;;;;3.20;3.00;;;14.70;64.00;;;;;;5056021;28;20444;-90
2022/10/31 07:03:45;;;;;;;3.10;2.90;;;14.60;63.10;;;;;;5103865;27;20833;-89
2022/10/31 07:06:12;;;;;;;3.67;3.07;;;14.70;63.70;;;;;;5101837;27;20823;-91
2022/10/31 07:08:39;;;;;;;3.60;3.30;;;14.80;63.00;;;;;;5079505;28;20482;-89
2022/10/31 07:11:07;;;;;;;3.87;3.57;;;14.70;63.00;;;;;;5101729;27;20456;-88
2022/10/31 07:13:35;;;;;;;5.50;3.60;;;14.70;63.60;;;;;;5066201;28;20963;-90
2022/10/31 07:16:07;;;;;;;7.30;3.90;;;14.90;63.80;;;;;;5097534;28;20455;-90
2022/10/31 07:18:37;;;;;;;4.90;4.40;;;14.90;63.80;;;;;;5084702;28;20590;-90
2022/10/31 07:21:05;;;;;;;7.80;4.47;;;14.90;63.60;;;;;;5075590;28;20858;-91
2022/10/31 07:23:32;;;;;;;5.10;4.33;;;14.80;63.80;;;;;;5083270;28;20458;-88
2022/10/31 07:26:38;;;;;;;12.63;4.63;;;15.00;63.80;;;;;;5052019;28;20463;-88
2022/10/31 07:29:05;;;;;;;8.30;7.50;;;14.80;63.80;;;;;;5067313;28;20966;-89
2022/10/31 07:31:32;;;;;;;4.97;4.40;;;14.50;64.50;;;;;;5082212;28;20449;-89
2022/10/31 07:34:06;;;;;;;9.70;4.60;;;14.60;64.70;;;;;;5069549;28;20458;-90
2022/10/31 07:36:36;;;;;;;8.37;5.40;;;14.70;64.80;;;;;;5100037;27;20474;-90
2022/10/31 07:39:04;;;;;;;7.00;4.93;;;14.70;65.10;;;;;;5077894;28;20474;-89
2022/10/31 07:41:34;;;;;;;13.83;5.93;;;14.80;64.60;;;;;;5066001;28;20451;-89
2022/10/31 07:44:01;;;;;;;7.27;5.00;;;14.80;64.90;;;;;;5065428;28;20501;-89
2022/10/31 07:47:07;;;;;;;11.20;4.97;;;15.10;64.50;;;;;;5057506;28;20521;-89
2022/10/31 07:50:12;;;;;;;13.10;6.03;;;15.20;64.20;;;;;;4999774;28;20447;-90
2022/10/31 07:53:02;;;;;;;5.90;5.30;;;15.00;64.40;;;;;;5074588;28;20451;-90
2022/10/31 07:55:45;;;;;;;7.40;5.90;;;15.10;64.70;;;;;;5092028;28;20500;-89
2022/10/31 07:58:16;;;;;;;17.80;5.60;;;15.20;64.10;;;;;;5082613;28;20529;-90
2022/10/31 08:00:45;;;;;;;12.00;5.17;;;15.20;63.80;;;;;;5079364;28;21439;-90
2022/10/31 08:03:17;;;;;;;11.03;5.47;;;15.20;63.60;;;;;;5083943;28;20432;-89
2022/10/31 08:06:04;;;;;;;23.90;6.73;;;15.10;64.50;;;;;;5094067;28;20438;-89
2022/10/31 08:08:54;;;;;;;19.57;5.97;;;14.80;65.80;;;;;;5095239;28;20479;-89
2022/10/31 08:11:21;;;;;;;19.83;6.70;;;14.70;66.30;;;;;;5088855;28;20578;-89
2022/10/31 08:13:48;;;;;;;9.97;5.97;;;14.90;66.10;;;;;;5078183;28;20459;-90
2022/10/31 08:16:15;;;;;;;10.30;6.30;;;15.00;65.20;;;;;;5083516;28;20823;-90
2022/10/31 08:18:55;;;;;;;7.17;5.77;;;14.90;65.70;;;;;;5092670;28;20471;-90
2022/10/31 08:21:24;;;;;;;13.07;8.10;;;14.90;65.60;;;;;;5061096;28;20452;-90
2022/10/31 08:23:51;;;;;;;17.40;7.10;;;14.90;66.30;;;;;;5092322;28;20835;-90
2022/10/31 08:26:20;;;;;;;27.30;6.60;;;15.00;65.90;;;;;;5065952;28;20559;-90
2022/10/31 08:28:50;;;;;;;14.67;6.73;;;14.90;65.90;;;;;;5075087;28;20549;-88
2022/10/31 08:31:17;;;;;;;15.40;6.60;;;14.80;65.50;;;;;;5090916;28;20444;-90
2022/10/31 08:34:04;;;;;;;17.17;11.67;;;14.60;66.40;;;;;;5069696;28;20443;-89
2022/10/31 08:36:52;;;;;;;13.23;7.17;;;14.80;66.80;;;;;;5089498;28;20470;-89
2022/10/31 08:39:29;;;;;;;11.90;7.07;;;14.90;66.40;;;;;;5077903;28;20461;-89
2022/10/31 08:41:56;;;;;;;13.13;6.93;;;15.00;66.40;;;;;;5058498;28;20471;-89
2022/10/31 08:44:23;;;;;;;18.70;8.10;;;15.20;66.40;;;;;;5058088;28;20467;-87
2022/10/31 08:46:50;;;;;;;14.20;8.93;;;15.40;66.00;;;;;;5063962;28;20471;-90
2022/10/31 08:49:17;;;;;;;14.20;8.43;;;15.40;65.20;;;;;;5075785;28;20471;-89
2022/10/31 08:51:44;;;;;;;14.57;8.37;;;15.50;65.60;;;;;;5041775;28;20454;-89
2022/10/31 08:54:13;;;;;;;8.87;7.40;;;15.30;66.00;;;;;;5049683;28;20524;-88
2022/10/31 08:56:56;;;;;;;10.47;6.33;;;15.20;66.30;;;;;;5091428;28;20629;-89
2022/10/31 08:59:41;;;;;;;18.27;10.80;;;15.20;67.20;;;;;;5065173;27;20451;-88
2022/10/31 09:02:38;;;;;;;9.30;6.83;;;15.20;66.80;;;;;;5076560;27;20451;-89
2022/10/31 09:05:05;;;;;;;12.83;6.97;;;15.50;66.40;;;;;;5050937;28;20451;-87
2022/10/31 09:07:34;;;;;;;9.83;7.03;;;15.30;66.50;;;;;;5063564;28;20466;-89
2022/10/31 09:10:02;;;;;;;8.77;6.63;;;15.40;66.70;;;;;;5058287;28;20986;-88
2022/10/31 09:12:33;;;;;;;7.57;6.33;;;15.50;67.20;;;;;;5059074;27;20455;-89
2022/10/31 09:15:09;;;;;;;9.77;6.60;;;15.50;66.80;;;;;;5059072;28;20447;-89
2022/10/31 09:17:47;;;;;;;10.97;6.83;;;15.70;66.20;;;;;;5077492;27;20455;-88
2022/10/31 09:20:38;;;;;;;7.17;6.27;;;15.70;66.30;;;;;;5049966;28;21121;-89
2022/10/31 09:23:09;;;;;;;8.13;7.00;;;15.80;66.10;;;;;;5084582;28;20534;-89
2022/10/31 09:25:40;;;;;;;13.70;10.60;;;16.00;65.80;;;;;;5059187;28;20455;-89
2022/10/31 09:28:25;;;;;;;10.43;8.23;;;15.90;65.60;;;;;;5077167;28;20502;-89
2022/10/31 09:30:55;;;;;;;12.57;8.40;;;15.90;65.60;;;;;;5056251;28;21101;-90
2022/10/31 09:33:42;;;;;;;12.53;7.10;;;15.90;66.00;;;;;;5073887;28;20435;-88
2022/10/31 09:36:29;;;;;;;10.83;7.57;;;16.00;66.00;;;;;;5074464;28;20469;-89
2022/10/31 09:38:57;;;;;;;10.87;8.63;;;15.60;66.20;;;;;;5062071;28;20580;-89
2022/10/31 09:41:31;;;;;;;54.40;26.83;;;15.30;67.20;;;;;;5062899;28;20911;-88
2022/10/31 09:44:05;;;;;;;11.17;8.47;;;15.30;68.30;;;;;;5061821;28;20457;-87
2022/10/31 09:46:42;;;;;;;13.00;8.10;;;15.50;67.90;;;;;;5075811;28;20526;-88
2022/10/31 09:49:30;;;;;;;9.10;5.67;;;15.40;67.50;;;;;;5063499;27;20508;-88
2022/10/31 09:52:02;;;;;;;7.73;5.73;;;15.40;67.90;;;;;;5065769;28;20438;-89
2022/10/31 09:54:38;;;;;;;15.30;8.20;;;15.70;67.80;;;;;;5062810;28;20471;-89
2022/10/31 09:57:13;;;;;;;9.23;7.00;;;15.80;67.30;;;;;;5076806;28;20495;-89
2022/10/31 09:59:43;;;;;;;9.20;6.97;;;16.10;67.10;;;;;;5059429;27;20447;-88
2022/10/31 10:02:17;;;;;;;9.70;8.43;;;16.10;66.20;;;;;;5058463;28;20472;-89
2022/10/31 10:04:50;;;;;;;7.87;7.03;;;16.00;66.50;;;;;;5065274;28;20501;-88
2022/10/31 10:07:28;;;;;;;7.67;6.20;;;16.00;66.80;;;;;;5050173;28;22795;-88
2022/10/31 10:10:17;;;;;;;10.53;6.73;;;16.00;67.10;;;;;;5089990;27;20454;-89
2022/10/31 10:13:25;;;;;;;10.60;8.40;;;15.90;66.80;;;;;;5093527;27;20468;-89
2022/10/31 10:16:08;;;;;;;9.43;7.93;;;16.10;66.90;;;;;;5060906;28;21006;-88
2022/10/31 10:18:44;;;;;;;9.30;6.50;;;16.10;66.80;;;;;;5091206;27;20460;-87
2022/10/31 10:21:23;;;;;;;9.30;7.10;;;16.10;67.20;;;;;;5076759;27;21119;-88
2022/10/31 10:24:02;;;;;;;10.03;7.07;;;16.10;67.20;;;;;;5093308;27;20450;-89
2022/10/31 10:26:36;;;;;;;10.30;7.23;;;16.00;67.10;;;;;;5092787;27;20454;-88
2022/10/31 10:29:15;;;;;;;10.23;8.73;;;16.00;67.60;;;;;;5060836;27;20456;-88
2022/10/31 10:31:46;;;;;;;8.53;6.90;;;16.10;67.20;;;;;;5059168;28;20456;-86
2022/10/31 10:34:19;;;;;;;8.07;7.20;;;16.10;67.30;;;;;;5064986;28;20458;-89
2022/10/31 10:36:51;;;;;;;10.10;7.50;;;16.20;67.30;;;;;;5067180;28;20461;-88
2022/10/31 10:39:21;;;;;;;9.23;7.57;;;16.30;67.30;;;;;;5091297;27;20481;-87
2022/10/31 10:50:05;;;;;;;9.10;7.77;;;16.70;66.80;;;;;;5067393;28;20439;-88
2022/10/31 10:52:39;;;;;;;12.23;9.10;;;16.60;66.70;;;;;;5059300;27;20451;-89
2022/10/31 10:55:15;;;;;;;12.10;7.90;;;16.50;67.30;;;;;;5082150;27;20804;-89
2022/10/31 10:57:54;;;;;;;12.60;8.23;;;16.50;67.30;;;;;;5091846;27;20478;-89
2022/10/31 11:00:24;;;;;;;13.43;8.50;;;16.30;68.20;;;;;;5041361;27;20454;-88
2022/10/31 11:02:52;;;;;;;12.27;9.00;;;16.20;68.40;;;;;;5059802;28;20536;-89
2022/10/31 11:05:25;;;;;;;15.27;9.23;;;16.20;69.20;;;;;;5090541;27;21045;-89
2022/10/31 11:07:52;;;;;;;13.60;9.60;;;16.40;69.00;;;;;;5072487;28;20558;-89
2022/10/31 11:10:19;;;;;;;14.87;9.80;;;16.60;68.30;;;;;;5074290;28;20714;-89
2022/10/31 11:13:00;;;;;;;16.43;9.83;;;16.70;67.90;;;;;;5092589;27;21108;-88
2022/10/31 11:15:31;;;;;;;14.50;11.20;;;16.80;67.80;;;;;;5055408;27;20469;-89
2022/10/31 11:17:58;;;;;;;18.10;10.83;;;16.90;67.90;;;;;;5057263;28;20484;-88
2022/10/31 11:20:31;;;;;;;15.70;10.27;;;17.00;67.50;;;;;;5055199;28;20975;-89
2022/10/31 11:23:04;;;;;;;18.93;11.80;;;16.80;68.10;;;;;;5057615;28;20462;-89
2022/10/31 11:25:31;;;;;;;15.20;11.07;;;16.80;68.60;;;;;;5091943;27;20432;-89
2022/10/31 11:28:03;;;;;;;21.53;11.00;;;17.00;68.10;;;;;;5082949;28;20466;-89
2022/10/31 11:30:42;;;;;;;17.07;10.43;;;17.20;67.90;;;;;;5056340;28;20449;-89
2022/10/31 11:33:19;;;;;;;16.20;10.93;;;17.30;67.50;;;;;;5047072;28;21096;-89
2022/10/31 11:35:48;;;;;;;16.93;11.37;;;17.30;67.50;;;;;;5072250;28;20450;-89
2022/10/31 11:38:20;;;;;;;17.20;11.87;;;17.30;67.30;;;;;;5075863;28;20487;-88
2022/10/31 11:40:59;;;;;;;24.67;16.57;;;17.50;67.10;;;;;;5074214;28;20451;-89
2022/10/31 11:43:27;;;;;;;15.83;11.40;;;17.60;66.70;;;;;;5058154;28;20457;-87
2022/10/31 11:45:55;;;;;;;15.40;11.27;;;17.70;66.50;;;;;;5090476;28;20486;-88
2022/10/31 11:48:25;;;;;;;15.00;10.77;;;17.50;67.10;;;;;;5074390;28;20479;-90
2022/10/31 11:50:55;;;;;;;16.87;11.43;;;17.40;67.60;;;;;;5074129;28;20459;-89
2022/10/31 11:53:28;;;;;;;15.60;10.70;;;17.30;67.70;;;;;;5080360;28;20478;-90
2022/10/31 11:56:07;;;;;;;17.87;11.60;;;17.40;68.00;;;;;;5072111;28;20443;-89
2022/10/31 11:58:34;;;;;;;18.47;11.73;;;17.50;67.90;;;;;;5055964;28;20497;-89
2022/10/31 12:01:02;;;;;;;30.90;20.00;;;17.60;66.90;;;;;;5090038;28;20447;-88
2022/10/31 12:03:44;;;;;;;19.27;13.00;;;17.70;67.00;;;;;;5064561;28;20512;-88
2022/10/31 12:06:15;;;;;;;18.00;13.10;;;17.50;67.20;;;;;;5076818;28;20881;-89
2022/10/31 12:08:43;;;;;;;19.93;11.80;;;17.30;68.40;;;;;;5092591;28;20503;-89
2022/10/31 12:11:24;;;;;;;16.00;12.10;;;17.20;68.80;;;;;;5073116;28;20522;-89
2022/10/31 12:14:04;;;;;;;20.73;14.10;;;17.30;68.70;;;;;;5073711;28;20443;-89
2022/10/31 12:16:40;;;;;;;21.00;13.80;;;17.60;68.30;;;;;;5054420;28;20465;-89
2022/10/31 12:19:18;;;;;;;14.60;12.03;;;17.80;67.70;;;;;;5063941;28;20473;-87
2022/10/31 12:21:59;;;;;;;22.03;14.07;;;17.90;67.10;;;;;;5075358;28;20457;-89
2022/10/31 12:24:42;;;;;;;18.80;12.80;;;18.00;66.60;;;;;;5047512;28;20796;-88
2022/10/31 12:27:20;;;;;;;20.90;12.50;;;17.90;66.90;;;;;;5080725;28;21265;-89
2022/10/31 12:30:02;;;;;;;18.33;12.63;;;17.80;67.60;;;;;;5056431;28;20443;-89
2022/10/31 12:32:42;;;;;;;21.43;13.57;;;17.90;67.50;;;;;;5081102;28;21024;-89
2022/10/31 12:35:43;;;;;;;21.70;13.47;;;18.00;67.40;;;;;;5091636;27;20470;-89
2022/10/31 12:38:27;;;;;;;17.00;12.03;;;17.80;67.40;;;;;;5068143;28;20553;-88
2022/10/31 12:41:15;;;;;;;18.83;14.13;;;17.70;68.40;;;;;;5077887;27;20538;-89
2022/10/31 12:43:47;;;;;;;21.43;13.73;;;17.60;68.30;;;;;;5067544;27;20535;-88
2022/10/31 12:46:25;;;;;;;18.13;13.77;;;17.80;68.40;;;;;;5075907;28;20438;-89
2022/10/31 12:49:10;;;;;;;27.03;18.67;;;18.00;67.70;;;;;;5076227;28;20474;-88
2022/10/31 12:51:44;;;;;;;21.40;15.60;;;18.00;67.90;;;;;;5067172;28;21124;-88
2022/10/31 12:54:32;;;;;;;23.13;16.90;;;18.00;67.90;;;;;;5065837;28;20466;-89
2022/10/31 12:57:08;;;;;;;21.30;14.00;;;18.20;67.90;;;;;;5048474;27;20950;-88
2022/10/31 12:59:40;;;;;;;21.93;15.70;;;18.40;67.50;;;;;;5094972;27;20450;-89
2022/10/31 13:02:17;;;;;;;30.37;19.80;;;18.40;67.10;;;;;;5060910;28;20463;-87
2022/10/31 13:04:50;;;;;;;21.80;16.53;;;18.40;67.20;;;;;;5051470;27;20508;-89
2022/10/31 13:07:23;;;;;;;23.83;16.60;;;18.50;67.20;;;;;;5079459;28;21097;-86
2022/10/31 13:09:59;;;;;;;23.33;17.50;;;18.50;67.00;;;;;;5051973;28;20453;-89
2022/10/31 13:12:30;;;;;;;21.30;14.40;;;18.60;66.90;;;;;;5073445;28;20524;-89
2022/10/31 13:14:59;;;;;;;21.43;15.97;;;18.60;66.60;;;;;;5065102;28;20451;-90
2022/10/31 13:17:32;;;;;;;28.80;19.77;;;18.60;67.00;;;;;;5096201;27;20490;-89